首页
METAR-TAF:

METAR-TAF

机场 :

克羅托內, 意大利

纬度: 39-00N, 经度: 017-04E, 海拔: 155米

当前天气观测

该预报发布于43分钟前的12:50 UTC
风速15节,风向北转东北
温度 17°C
湿度 34%
气压 1024 hPa
能见度10公里或以上
1500米以下无云,无积雨云

METAR: LIBC 071250Z 03015KT CAVOK 17/01 Q1024

时间: 15:33 (13:33 UTC)

预报

该预报发布于2小时和33分钟前的11:00 UTC
预报有效从07日的 12点(UTC)到 08日的 12点(UTC)
风速14节,风向北转东北
能见度10公里或以上
1500米以下无云,无积雨云

TAF: LIBC 071100Z 0712/0812 02014KT CAVOK

超过4000个机场的气象观测和天气预报(METAR&TAF报告)。

可查询的气象台以黄色和红色小点在地图上表示。

将鼠标移到小点上方,可查看气象台名称。

然后点击查看天气观测和预报。

如需切换地图:点击带黑十字的绿色按钮放大地图;点击带横线的绿色按钮缩小地图;或者点击绿色箭头查看邻近地区的地图。


METAR-TAF: